^^
Datos históricos de la estación: Murcia-Puente Tocinos
Diario Informe para Junio 21, 2021 Unidades:  Ingés    Métrico   Ambas
Diario Semanal Mensual Anual
  Máxima: Mínima: Promedio:
Temperatura: 87.1 °F 70.3 °F 79 °F
Punto de rocio: 59.2 °F 55 °F 57 °F
Humedad: 67% 35% 48%
Velocidad viento: 12.5mph 1.4mph 5.3mph
Racha viento: 22.3mph - -
Viento- - Sur
Presión: 29.8 in 29.7 in -
Precipitación: 0 in    
 
 
Tabla de datos para Junio 21, 2021
Hora Temperatura Punto de rocio Presión Viento Velocidad viento Racha viento Humedad Intensidad lluvia(por hora) Nubes
00:04 75.6 °F 56.7 °F 29.8 in Sur 4.7 mph 7 mph 52% 0 in
00:09 75.6 °F 57 °F 29.8 in SSE 4.5 mph 7 mph 52.9% 0 in
00:14 75.4 °F 57.2 °F 29.8 in SE 4.3 mph 6 mph 53.3% 0 in
00:19 75.2 °F 57.4 °F 29.8 in SSE 4.3 mph 7.4 mph 54% 0 in
00:24 74.8 °F 57.7 °F 29.8 in SE 4.3 mph 6.9 mph 55% 0 in
00:29 74.7 °F 57.4 °F 29.8 in SSE 4.5 mph 7.6 mph 55% 0 in
00:34 74.5 °F 57.6 °F 29.8 in Sur 4.7 mph 8.1 mph 55.6% 0 in
00:39 74.1 °F 57.4 °F 29.8 in Sur 4.7 mph 7 mph 56% 0 in
00:44 74.1 °F 57.4 °F 29.8 in SSE 4.7 mph 6.9 mph 56% 0 in
00:49 73.9 °F 57.7 °F 29.8 in SSE 4.5 mph 6.9 mph 57% 0 in
00:54 73.9 °F 57.7 °F 29.8 in SSE 4.3 mph 7 mph 57% 0 in
00:59 73.9 °F 57.7 °F 29.8 in Sur 4.3 mph 6.9 mph 57% 0 in
01:04 73.9 °F 57.7 °F 29.8 in SSE 4.3 mph 7.4 mph 56.8% 0 in
01:09 73.9 °F 57.7 °F 29.8 in SE 4.5 mph 8.1 mph 57% 0 in
01:14 73.9 °F 58.1 °F 29.8 in SE 4.7 mph 6.9 mph 57.7% 0 in
01:19 73.8 °F 57.9 °F 29.8 in Sur 4.5 mph 7 mph 57.8% 0 in
01:24 73.8 °F 57.7 °F 29.8 in OSO 4.3 mph 5.2 mph 57.3% 0 in
01:29 73.8 °F 57.9 °F 29.8 in Oeste 3.6 mph 4.6 mph 57.9% 0 in
01:34 73.6 °F 57.9 °F 29.8 in ONO 3.1 mph 4.6 mph 58% 0 in
01:39 73.6 °F 57.9 °F 29.8 in OSO 2.4 mph 5.9 mph 58% 0 in
01:44 73.2 °F 57.9 °F 29.8 in SO 2 mph 6 mph 58.7% 0 in
01:49 73.2 °F 57.9 °F 29.8 in SO 2.5 mph 5 mph 59% 0 in
01:54 73.2 °F 57.9 °F 29.8 in SO 2.9 mph 4.6 mph 58.8% 0 in
01:59 73 °F 57.6 °F 29.8 in SO 2.5 mph 5 mph 58.2% 0 in
02:04 73 °F 57.9 °F 29.8 in OSO 2.4 mph 5 mph 59% 0 in
02:09 73 °F 57.9 °F 29.8 in OSO 2.2 mph 4 mph 59.1% 0 in
02:14 73 °F 58.3 °F 29.8 in OSO 2 mph 2.4 mph 60% 0 in
02:19 72.9 °F 58.6 °F 29.8 in OSO 1.6 mph 3.5 mph 61.1% 0 in
02:24 72.7 °F 59 °F 29.8 in SO 1.4 mph 4.7 mph 62% 0 in
02:29 72.3 °F 57.7 °F 29.8 in Este 2 mph 5 mph 60.1% 0 in
02:34 72 °F 56.8 °F 29.8 in Este 2.4 mph 5 mph 59% 0 in
02:39 71.8 °F 56.8 °F 29.8 in Este 2.7 mph 5 mph 59.6% 0 in
02:44 71.6 °F 57.4 °F 29.8 in SE 2.9 mph 5 mph 60.9% 0 in
02:49 71.4 °F 57.7 °F 29.8 in SSE 2.6 mph 5.2 mph 62% 0 in
02:54 71.6 °F 58.3 °F 29.8 in SSO 2.4 mph 5 mph 63% 0 in
02:59 71.8 °F 58.5 °F 29.8 in SSO 2.7 mph 4.6 mph 63% 0 in
03:04 71.8 °F 58.5 °F 29.8 in Sur 2.9 mph 5 mph 63% 0 in
03:09 72 °F 58.6 °F 29.8 in SSE 2.5 mph 5 mph 63% 0 in
03:14 72 °F 58.6 °F 29.8 in ESE 2.4 mph 5 mph 63% 0 in
03:19 71.8 °F 58.8 °F 29.8 in ESE 2.4 mph 5 mph 63.8% 0 in
03:24 71.4 °F 58.6 °F 29.8 in ESE 2.4 mph 3.6 mph 64% 0 in
03:29 71.2 °F 58.6 °F 29.8 in SSE 2.2 mph 4.6 mph 64.2% 0 in
03:34 71.1 °F 58.8 °F 29.8 in SE 2 mph 5 mph 65% 0 in
03:39 71.1 °F 58.6 °F 29.8 in ESE 2 mph 4 mph 65% 0 in
03:44 70.7 °F 58.5 °F 29.8 in SE 2 mph 5 mph 65% 0 in
03:49 70.5 °F 58.5 °F 29.8 in SE 2.2 mph 5 mph 65.4% 0 in
03:54 70.3 °F 58.5 °F 29.8 in SSE 2.4 mph 3 mph 66% 0 in
03:59 70.3 °F 58.5 °F 29.8 in SE 1.7 mph 3 mph 66% 0 in
04:04 70.3 °F 58.5 °F 29.8 in Sur 1.4 mph 3.5 mph 66% 0 in
04:09 70.3 °F 58.5 °F 29.8 in ESE 1.6 mph 3.5 mph 66.1% 0 in
04:14 70.3 °F 58.8 °F 29.8 in SE 1.8 mph 4 mph 66.9% 0 in
04:19 70.3 °F 58.5 °F 29.8 in SE 2.2 mph 4.6 mph 66.1% 0 in
04:24 70.3 °F 58.8 °F 29.8 in Sur 2.4 mph 5 mph 67% 0 in
04:29 70.3 °F 58.6 °F 29.8 in SO 2.2 mph 4.6 mph 66.5% 0 in
04:34 70.3 °F 58.5 °F 29.8 in SSO 2 mph 5 mph 66% 0 in
04:39 70.3 °F 58.3 °F 29.8 in SSO 2.6 mph 5 mph 65.6% 0 in
04:44 70.3 °F 58.1 °F 29.8 in SSO 3.1 mph 5.4 mph 65% 0 in
04:49 70.5 °F 57.7 °F 29.8 in SSO 3.4 mph 6 mph 64% 0 in
04:54 70.5 °F 57.7 °F 29.8 in SSO 3.6 mph 6 mph 64% 0 in
04:59 70.5 °F 57.7 °F 29.8 in SSO 3.3 mph 5 mph 64% 0 in
05:04 70.5 °F 57.7 °F 29.8 in SSO 3.1 mph 5 mph 64% 0 in
05:09 70.5 °F 57.4 °F 29.8 in SO 3 mph 5.4 mph 63.2% 0 in
05:14 70.5 °F 57.2 °F 29.8 in SSO 2.9 mph 6 mph 62.4% 0 in
05:19 70.7 °F 57 °F 29.8 in SSO 2.9 mph 6 mph 62% 0 in
05:24 70.9 °F 57 °F 29.8 in SSO 2.9 mph 5.9 mph 61.5% 0 in
05:29 71.1 °F 56.8 °F 29.8 in SO 2.9 mph 6 mph 61% 0 in
05:34 71.1 °F 56.8 °F 29.8 in SO 2.9 mph 6 mph 61% 0 in
05:39 71.1 °F 56.8 °F 29.8 in SO 2.9 mph 6 mph 61% 0 in
05:44 70.9 °F 56.7 °F 29.8 in SO 2.9 mph 6.9 mph 60.6% 0 in
05:49 71.1 °F 56.5 °F 29.8 in SSO 3.5 mph 7 mph 60% 0 in
05:54 71.1 °F 56.5 °F 29.8 in SSO 4 mph 7.4 mph 60% 0 in
05:59 71.2 °F 56.3 °F 29.8 in SSO 4.2 mph 7 mph 59.2% 0 in
06:04 71.2 °F 56.1 °F 29.8 in SSO 4.3 mph 7 mph 59% 0 in
06:09 71.2 °F 56.5 °F 29.8 in Sur 4.1 mph 6 mph 59.6% 0 in
06:14 71.2 °F 56.5 °F 29.8 in Sur 4 mph 5.9 mph 60% 0 in
06:19 71.1 °F 56.5 °F 29.8 in SSO 3.5 mph 5.2 mph 60% 0 in
06:24 70.9 °F 56.7 °F 29.8 in Sur 3.1 mph 5.9 mph 60.7% 0 in
06:29 70.9 °F 56.8 °F 29.8 in Sur 3.1 mph 6 mph 61% 0 in
06:34 70.9 °F 56.7 °F 29.8 in SSO 3.1 mph 6 mph 60.9% 0 in
06:39 70.9 °F 56.1 °F 29.8 in SSO 3.4 mph 6.9 mph 60% 0 in
06:44 70.7 °F 56.1 °F 29.8 in Sur 3.6 mph 7 mph 60% 0 in
06:49 70.7 °F 56.1 °F 29.8 in Sur 3.9 mph 6.2 mph 60% 0 in
06:54 70.9 °F 56.3 °F 29.8 in Sur 4 mph 6 mph 60% 0 in
06:59 70.9 °F 56.3 °F 29.8 in Sur 3.8 mph 6 mph 60% 0 in
07:04 70.9 °F 56.1 °F 29.8 in SSE 3.6 mph 5.2 mph 59.7% 0 in
07:09 71.1 °F 55.9 °F 29.8 in SSE 3.2 mph 5 mph 59.1% 0 in
07:14 71.1 °F 56.1 °F 29.8 in SSE 2.9 mph 5 mph 59% 0 in
07:19 71.2 °F 56.3 °F 29.8 in SSE 2.6 mph 5 mph 59.3% 0 in
07:24 71.2 °F 56.3 °F 29.8 in Sur 2.4 mph 5 mph 59.2% 0 in
07:29 71.4 °F 56.3 °F 29.8 in SSO 2.4 mph 5.2 mph 59% 0 in
07:34 71.4 °F 56.1 °F 29.8 in Sur 2.4 mph 5.2 mph 58.5% 0 in
07:39 71.4 °F 56.3 °F 29.8 in Sur 2.8 mph 6.2 mph 58.9% 0 in
07:44 71.6 °F 55.9 °F 29.8 in Sur 3.1 mph 6.9 mph 58% 0 in
07:49 71.8 °F 55.8 °F 29.8 in SSO 3.8 mph 8.7 mph 57.1% 0 in
07:54 72 °F 55.6 °F 29.8 in Sur 4.3 mph 9.2 mph 56.5% 0 in
07:59 72 °F 55.4 °F 29.8 in Sur 5 mph 9 mph 56% 0 in
08:04 72.1 °F 55.6 °F 29.8 in Sur 5.4 mph 8 mph 56% 0 in
08:09 72.3 °F 55.8 °F 29.8 in SSO 5.3 mph 10 mph 56% 0 in
08:14 72.5 °F 55.9 °F 29.8 in SSO 5.2 mph 10.4 mph 55.9% 0 in
08:19 72.9 °F 56.1 °F 29.8 in SO 4.6 mph 10 mph 55.8% 0 in
08:24 73 °F 55.8 °F 29.8 in SSO 4.3 mph 8.5 mph 54.9% 0 in
08:29 73.2 °F 55.6 °F 29.8 in SSO 4.5 mph 9 mph 54.1% 0 in
08:34 73.4 °F 55.8 °F 29.8 in SSO 4.7 mph 10.4 mph 54% 0 in
08:39 73.8 °F 55.9 °F 29.8 in SO 5.1 mph 10.4 mph 53.9% 0 in
08:44 73.9 °F 55.8 °F 29.8 in SSO 5.4 mph 10.4 mph 53% 0 in
08:49 73.9 °F 55.8 °F 29.8 in OSO 5.3 mph 10 mph 53% 0 in
08:54 74.1 °F 55.9 °F 29.8 in SSO 5.2 mph 8.1 mph 53% 0 in
08:59 74.5 °F 56.1 °F 29.8 in SO 5.2 mph 8.5 mph 53% 0 in
09:04 74.7 °F 56.5 °F 29.8 in SO 5.2 mph 9 mph 53% 0 in
09:09 74.8 °F 56.7 °F 29.8 in SO 4.9 mph 8 mph 53% 0 in
09:14 75 °F 56.7 °F 29.8 in SO 4.7 mph 8.1 mph 52.9% 0 in
09:19 75.4 °F 56.8 °F 29.8 in SO 4.7 mph 8.1 mph 52.6% 0 in
09:24 75.7 °F 56.8 °F 29.8 in OSO 4.7 mph 8.5 mph 52% 0 in
09:29 75.9 °F 57 °F 29.8 in OSO 4.3 mph 9 mph 52% 0 in
09:34 76.3 °F 56.8 °F 29.8 in OSO 4 mph 13 mph 51.1% 0 in
09:39 76.6 °F 56.5 °F 29.8 in Oeste 4.9 mph 13 mph 49.9% 0 in
09:44 76.8 °F 56.1 °F 29.8 in Oeste 5.4 mph 14 mph 48.7% 0 in
09:49 77.2 °F 55.9 °F 29.8 in Oeste 6.7 mph 14 mph 48% 0 in
09:54 77.2 °F 56.1 °F 29.8 in OSO 7.4 mph 13 mph 48.1% 0 in
09:59 77.4 °F 56.1 °F 29.8 in Oeste 7.8 mph 15 mph 48% 0 in
10:04 77.4 °F 55.9 °F 29.8 in ONO 8.1 mph 15 mph 47.5% 0 in
10:09 77.5 °F 55.8 °F 29.8 in Oeste 8.1 mph 13 mph 47% 0 in
10:14 77.7 °F 55.9 °F 29.8 in ONO 8.1 mph 13 mph 47% 0 in
10:19 78.1 °F 56.3 °F 29.8 in OSO 7 mph 12 mph 47.1% 0 in
10:24 78.3 °F 55.8 °F 29.8 in OSO 6.2 mph 12 mph 46% 0 in
10:29 78.4 °F 55.9 °F 29.8 in Oeste 6.2 mph 12 mph 45.9% 0 in
10:34 78.8 °F 55.9 °F 29.8 in SO 6.2 mph 10.7 mph 45.4% 0 in
10:39 79 °F 55.8 °F 29.8 in OSO 5.4 mph 12.3 mph 45% 0 in
10:44 78.6 °F 55.6 °F 29.8 in OSO 4.7 mph 12.7 mph 45% 0 in
10:49 78.4 °F 55.6 °F 29.8 in OSO 6.2 mph 13.5 mph 45.5% 0 in
10:54 78.6 °F 55.6 °F 29.8 in Oeste 7.4 mph 14 mph 45.1% 0 in
10:59 78.8 °F 55.8 °F 29.8 in OSO 6.4 mph 14 mph 45% 0 in
11:04 79 °F 55.8 °F 29.8 in SSO 5.9 mph 10.7 mph 44.9% 0 in
11:09 79.2 °F 55.6 °F 29.8 in SO 5.5 mph 11 mph 44.4% 0 in
11:14 79.3 °F 55.6 °F 29.8 in OSO 5.2 mph 11 mph 44% 0 in
11:19 79.3 °F 55.4 °F 29.8 in NO 5.2 mph 10 mph 43.7% 0 in
11:24 79.7 °F 55.6 °F 29.8 in SE 5.2 mph 10.4 mph 43.6% 0 in
11:29 80.1 °F 55.6 °F 29.8 in OSO 4.7 mph 10 mph 43% 0 in
11:34 80.2 °F 55.8 °F 29.8 in ONO 4.3 mph 9 mph 43% 0 in
11:39 80.4 °F 55.4 °F 29.8 in ONO 3.9 mph 7.4 mph 42.1% 0 in
11:44 80.8 °F 55.4 °F 29.8 in Oeste 3.6 mph 9.2 mph 41.8% 0 in
11:49 81 °F 55 °F 29.8 in OSO 3.9 mph 9.2 mph 41.2% 0 in
11:54 81.1 °F 55.4 °F 29.8 in SO 4 mph 6.9 mph 41.4% 0 in
11:59 81.3 °F 55.6 °F 29.8 in ONO 3.8 mph 7.4 mph 41.2% 0 in
12:04 81.9 °F 55.4 °F 29.8 in NO 3.6 mph 8.7 mph 40.5% 0 in
12:09 81.9 °F 55 °F 29.8 in OSO 3.8 mph 9.7 mph 40% 0 in
12:14 81.7 °F 55.6 °F 29.8 in North 4 mph 10 mph 40.9% 0 in
12:19 82 °F 55.9 °F 29.8 in NNE 3.5 mph 6 mph 40.7% 0 in
12:24 82.6 °F 55.9 °F 29.8 in North 3.1 mph 7.6 mph 40% 0 in
12:29 82.8 °F 55.6 °F 29.8 in Oeste 3.7 mph 9.2 mph 39.3% 0 in
12:34 82.6 °F 55.6 °F 29.8 in ONO 4 mph 9 mph 39.7% 0 in
12:39 82.6 °F 55.6 °F 29.8 in NO 4.2 mph 8 mph 39.8% 0 in
12:44 82.8 °F 55.4 °F 29.8 in SSO 4.3 mph 6.2 mph 39.2% 0 in
12:49 82.9 °F 55.8 °F 29.8 in ESE 3.9 mph 8.1 mph 39.5% 0 in
12:54 83.3 °F 55.9 °F 29.8 in Este 3.6 mph 8.5 mph 39.2% 0 in
12:59 83.5 °F 56.5 °F 29.8 in ENE 4 mph 5.9 mph 39.8% 0 in
13:04 84 °F 56.1 °F 29.8 in ENE 4.3 mph 6 mph 38.6% 0 in
13:09 84.6 °F 56.1 °F 29.8 in ENE 3.4 mph 6.9 mph 38% 0 in
13:14 84 °F 56.3 °F 29.8 in NE 2.9 mph 5.9 mph 38.9% 0 in
13:19 84.4 °F 56.7 °F 29.8 in Este 3.3 mph 6.4 mph 39% 0 in
13:24 84.7 °F 55.9 °F 29.8 in Sur 3.6 mph 8.1 mph 37.6% 0 in
13:29 84.7 °F 55.8 °F 29.8 in SO 3.9 mph 8 mph 37.1% 0 in
13:34 84.7 °F 55.8 °F 29.8 in OSO 4 mph 7.4 mph 37.2% 0 in
13:39 84.7 °F 55.6 °F 29.8 in SO 4 mph 8.1 mph 37% 0 in
13:44 84.9 °F 55.8 °F 29.8 in ONO 4 mph 7.4 mph 37% 0 in
13:49 85.3 °F 56.1 °F 29.8 in Sur 3.1 mph 7.4 mph 37% 0 in
13:54 85.5 °F 56.1 °F 29.8 in Oeste 2.4 mph 7 mph 37% 0 in
13:59 85.6 °F 56.3 °F 29.8 in North 2.8 mph 7 mph 36.9% 0 in
14:04 85.6 °F 56.1 °F 29.8 in SE 3.1 mph 8.5 mph 36.5% 0 in
14:09 85.6 °F 56.5 °F 29.8 in ENE 3.6 mph 7.4 mph 37.1% 0 in
14:14 86 °F 56.3 °F 29.8 in NNO 4 mph 9.7 mph 36.4% 0 in
14:19 85.8 °F 55.8 °F 29.8 in SE 4.7 mph 10 mph 36% 0 in
14:24 86.2 °F 56.1 °F 29.8 in SSE 5.2 mph 9 mph 36% 0 in
14:29 86.5 °F 55.8 °F 29.8 in SSE 4.5 mph 9.2 mph 35.3% 0 in
14:34 86.4 °F 55.4 °F 29.8 in SO 4 mph 8.1 mph 35% 0 in
14:39 86.4 °F 58.5 °F 29.8 in ESE 4.8 mph 17.3 mph 38.9% 0 in
14:44 86.4 °F 59 °F 29.8 in Este 5.2 mph 17 mph 39.7% 0 in
14:49 86 °F 59 °F 29.8 in ESE 7.9 mph 16.1 mph 40.1% 0 in
14:54 86.4 °F 59.2 °F 29.8 in Este 9.7 mph 15 mph 40% 0 in
14:59 86.5 °F 59 °F 29.8 in ESE 8.4 mph 14 mph 39.3% 0 in
15:04 86.7 °F 58.5 °F 29.8 in SE 7.6 mph 15.9 mph 38.7% 0 in
15:09 86.5 °F 58.5 °F 29.8 in ESE 9.4 mph 18.4 mph 38.8% 0 in
15:14 86.9 °F 58.5 °F 29.8 in ESE 10.7 mph 19.2 mph 38.4% 0 in
15:19 86.5 °F 57.9 °F 29.8 in ESE 10.4 mph 20 mph 38% 0 in
15:24 86.4 °F 57.9 °F 29.8 in ESE 10.2 mph 15 mph 38.2% 0 in
15:29 86.4 °F 57.7 °F 29.8 in SSE 10.2 mph 19 mph 38% 0 in
15:34 86.4 °F 57.7 °F 29.8 in SE 10.2 mph 16.3 mph 38% 0 in
15:39 86.4 °F 57.6 °F 29.8 in SSE 10.5 mph 17.3 mph 37.7% 0 in
15:44 86.4 °F 57.7 °F 29.8 in SE 10.7 mph 18.4 mph 38% 0 in
15:49 86.2 °F 57.7 °F 29.8 in SE 11 mph 18 mph 38.1% 0 in
15:54 86.4 °F 57.9 °F 29.8 in ESE 11.2 mph 20.1 mph 38.3% 0 in
15:59 85.8 °F 57.7 °F 29.7 in ESE 12.1 mph 21 mph 38.5% 0 in
16:04 86.2 °F 58.3 °F 29.7 in ESE 12.5 mph 21 mph 39% 0 in
16:09 86.5 °F 58.1 °F 29.7 in SE 11.4 mph 18 mph 38.2% 0 in
16:14 86.2 °F 58.1 °F 29.7 in SE 10.7 mph 18.4 mph 38.7% 0 in
16:19 86.4 °F 58.5 °F 29.7 in ESE 10.7 mph 18.1 mph 39% 0 in
16:24 86.4 °F 58.5 °F 29.7 in ESE 10.7 mph 21.9 mph 39% 0 in
16:29 85.8 °F 58.3 °F 29.7 in ESE 11.7 mph 22 mph 39.6% 0 in
16:34 85.8 °F 58.5 °F 29.7 in ESE 12.3 mph 22.3 mph 39.8% 0 in
16:39 86 °F 58.5 °F 29.7 in ESE 11.8 mph 20.8 mph 39.5% 0 in
16:44 85.8 °F 58.6 °F 29.7 in ESE 11.4 mph 14.7 mph 39.8% 0 in
16:49 86 °F 58.1 °F 29.7 in ESE 11 mph 19 mph 39% 0 in
16:54 85.8 °F 58.1 °F 29.7 in ESE 10.7 mph 19.6 mph 39% 0 in
16:59 85.8 °F 57.9 °F 29.7 in ESE 10.7 mph 20 mph 39% 0 in
17:04 86 °F 57.9 °F 29.7 in ESE 10.7 mph 20 mph 38.7% 0 in
17:09 86.2 °F 57.9 °F 29.7 in SE 10.4 mph 17 mph 38.5% 0 in
17:14 86.5 °F 57.9 °F 29.7 in SE 10.2 mph 15 mph 37.9% 0 in
17:19 86.5 °F 57.9 °F 29.7 in ESE 9.4 mph 19.6 mph 38% 0 in
17:24 86.4 °F 57.7 °F 29.7 in ESE 8.7 mph 18.4 mph 38% 0 in
17:29 86.4 °F 57.9 °F 29.7 in SE 10.3 mph 17.5 mph 38.3% 0 in
17:34 86 °F 58.1 °F 29.7 in ESE 11.4 mph 19.7 mph 39.1% 0 in
17:39 85.8 °F 58.6 °F 29.7 in ESE 11.7 mph 20 mph 39.8% 0 in
17:44 86.2 °F 58.6 °F 29.7 in SE 11.8 mph 17 mph 39.5% 0 in
17:49 86.7 °F 58.8 °F 29.7 in ESE 10.2 mph 15 mph 39% 0 in
17:54 86.7 °F 58.8 °F 29.7 in ESE 9.2 mph 17.5 mph 39% 0 in
17:59 86.5 °F 58.6 °F 29.7 in SE 9.7 mph 18.4 mph 39% 0 in
18:04 86.5 °F 58.5 °F 29.7 in SE 10 mph 18 mph 38.6% 0 in
18:09 86.9 °F 58.3 °F 29.7 in ESE 9.2 mph 16.1 mph 38.2% 0 in
18:14 87.1 °F 58.3 °F 29.7 in SE 8.7 mph 19 mph 38% 0 in
18:19 87.1 °F 58.3 °F 29.7 in SE 9.9 mph 16.3 mph 38% 0 in
18:24 86.7 °F 58.3 °F 29.7 in SE 10.7 mph 16.1 mph 38.3% 0 in
18:29 86.7 °F 58.3 °F 29.7 in SE 9.4 mph 16.1 mph 38.1% 0 in
18:34 87.1 °F 58.3 °F 29.7 in SE 8.7 mph 16.1 mph 37.9% 0 in
18:39 87.1 °F 58.3 °F 29.7 in SE 8.7 mph 14.5 mph 37.8% 0 in
18:44 86.7 °F 58.1 °F 29.7 in SE 8.7 mph 15 mph 37.9% 0 in
18:49 86.9 °F 57.9 °F 29.7 in SE 9 mph 16.1 mph 37.5% 0 in
18:54 86.7 °F 57.7 °F 29.7 in SE 9.2 mph 16 mph 37.5% 0 in
18:59 86.7 °F 58.1 °F 29.7 in ESE 8.5 mph 14 mph 38% 0 in
19:04 86.7 °F 58.1 °F 29.7 in SE 8.1 mph 15 mph 38% 0 in
19:09 86.4 °F 57.9 °F 29.7 in ESE 8.8 mph 15 mph 38% 0 in
19:14 86.4 °F 57.7 °F 29.7 in ESE 9.2 mph 11.5 mph 38% 0 in
19:19 86.4 °F 57.7 °F 29.7 in ESE 8.6 mph 17.3 mph 38% 0 in
19:24 86 °F 57.7 °F 29.7 in ESE 8.1 mph 17 mph 38.5% 0 in
19:29 85.6 °F 57.7 °F 29.7 in ESE 9.9 mph 18.4 mph 39% 0 in
19:34 85.5 °F 57.7 °F 29.7 in ESE 11.2 mph 18 mph 39% 0 in
19:39 85.5 °F 57.7 °F 29.7 in ESE 10.4 mph 16.3 mph 39% 0 in
19:44 85.5 °F 57.7 °F 29.7 in SE 10 mph 16.3 mph 39% 0 in
19:49 85.3 °F 57.6 °F 29.7 in ESE 9.8 mph 16.1 mph 39% 0 in
19:54 85.1 °F 57.4 °F 29.7 in ESE 9.7 mph 15.2 mph 39% 0 in
19:59 85.1 °F 57.4 °F 29.7 in ESE 8.9 mph 12.7 mph 39% 0 in
20:04 85.3 °F 57.6 °F 29.7 in ESE 8.5 mph 13 mph 39% 0 in
20:09 85.3 °F 57.6 °F 29.7 in ESE 7.3 mph 12 mph 39% 0 in
20:14 85.3 °F 57.6 °F 29.7 in ESE 6.4 mph 12 mph 39% 0 in
20:19 85.3 °F 57.4 °F 29.7 in SE 6.3 mph 11 mph 38.9% 0 in
20:24 85.1 °F 57.4 °F 29.7 in SE 6.2 mph 11 mph 38.9% 0 in
20:29 85.1 °F 57 °F 29.7 in ESE 6 mph 10.2 mph 38.5% 0 in
20:34 84.9 °F 57 °F 29.7 in SE 5.9 mph 10.7 mph 38.9% 0 in
20:39 84.7 °F 57 °F 29.7 in ESE 6.2 mph 11 mph 39% 0 in
20:44 84.6 °F 57.2 °F 29.7 in ESE 6.4 mph 9.2 mph 39.3% 0 in
20:49 84.4 °F 57.4 °F 29.7 in ESE 5.8 mph 9.7 mph 40% 0 in
20:54 84 °F 57 °F 29.8 in Este 5.4 mph 9.2 mph 40% 0 in
20:59 83.7 °F 57.2 °F 29.8 in ESE 5.4 mph 9 mph 40.5% 0 in
21:04 83.7 °F 57.6 °F 29.8 in ESE 5.4 mph 8 mph 41% 0 in
21:09 83.7 °F 57.4 °F 29.8 in ESE 4.8 mph 6.9 mph 41% 0 in
21:14 83.5 °F 57.2 °F 29.8 in ESE 4.3 mph 7 mph 41% 0 in
21:19 83.1 °F 57.2 °F 29.8 in ESE 4.1 mph 6.9 mph 41.4% 0 in
21:24 82.9 °F 57.4 °F 29.8 in Este 4 mph 5.2 mph 41.9% 0 in
21:29 82.8 °F 57.2 °F 29.8 in Este 3.8 mph 5.9 mph 41.8% 0 in
21:34 82.6 °F 57.2 °F 29.8 in ESE 3.6 mph 6.2 mph 42% 0 in
21:39 82.4 °F 57.6 °F 29.8 in ESE 3.6 mph 6 mph 42.8% 0 in
21:44 82 °F 57.6 °F 29.8 in ESE 3.6 mph 6.9 mph 43.3% 0 in
21:49 82 °F 57.9 °F 29.8 in SE 3.9 mph 7 mph 44% 0 in
21:54 81.9 °F 57.7 °F 29.8 in SE 4 mph 6 mph 44% 0 in
21:59 81.9 °F 57.7 °F 29.8 in ESE 3.4 mph 4.6 mph 43.9% 0 in
22:04 81.9 °F 57.7 °F 29.8 in ESE 3.1 mph 5 mph 43.8% 0 in
22:09 82 °F 57.2 °F 29.8 in SE 3 mph 5.8 mph 43% 0 in
22:14 82 °F 57.4 °F 29.8 in SE 2.9 mph 6 mph 43% 0 in
22:19 82 °F 56.5 °F 29.8 in SSO 2.9 mph 5.9 mph 41.7% 0 in
22:24 82 °F 55.9 °F 29.8 in SO 2.9 mph 8.1 mph 40.8% 0 in
22:29 82 °F 55.4 °F 29.8 in SSO 3.5 mph 6.9 mph 40% 0 in
22:34 82 °F 55.4 °F 29.8 in Sur 4 mph 6.2 mph 40.1% 0 in
22:39 82 °F 55.8 °F 29.8 in Sur 3.8 mph 5.8 mph 40.7% 0 in
22:44 81.9 °F 55.8 °F 29.8 in SO 3.6 mph 6.9 mph 40.9% 0 in
22:49 81.7 °F 55.8 °F 29.8 in SO 3.9 mph 7 mph 41% 0 in
22:54 81.3 °F 55.4 °F 29.8 in SO 4 mph 8.1 mph 41% 0 in
22:59 81.1 °F 55.4 °F 29.8 in SO 4.7 mph 8.1 mph 41.4% 0 in
23:04 80.8 °F 55.6 °F 29.8 in SO 5.2 mph 8.1 mph 42% 0 in
23:09 80.4 °F 55.6 °F 29.8 in SSO 4.7 mph 6.9 mph 42.4% 0 in
23:14 80.2 °F 55.8 °F 29.8 in SO 4.3 mph 5.8 mph 43% 0 in
23:19 80.1 °F 55.8 °F 29.8 in SO 3.5 mph 6 mph 43.4% 0 in
23:24 79.9 °F 55.9 °F 29.8 in SO 3.1 mph 6.9 mph 44% 0 in
23:29 79.5 °F 55.9 °F 29.8 in Oeste 3.7 mph 10.4 mph 44.4% 0 in
23:34 79.2 °F 56.8 °F 29.8 in ONO 4 mph 11.5 mph 46.5% 0 in
23:39 79 °F 57.6 °F 29.8 in Oeste 5.1 mph 12 mph 48.1% 0 in
23:44 78.6 °F 58.5 °F 29.8 in NO 5.9 mph 6.9 mph 50% 0 in
23:49 78.6 °F 59 °F 29.8 in ONO 4.7 mph 7 mph 51% 0 in
23:54 78.4 °F 58.6 °F 29.8 in ONO 4 mph 6.9 mph 50.8% 0 in
23:59 78.4 °F 56.8 °F 29.8 in ONO 3.7 mph 10.4 mph 47.5% 0 in
Murcia-Puente Tocinos, España
Compliments of Weather Underground - 2.75 mb

La estación de MeteoMurcia.com, publica sus datos en los siguientes proyectos:

Weather Underground PWS IMURCIAP2 Meteoclimatic www.awekas.at

W3Counter
Web Analytics